Time;durP1;ratioP1;P1;durP2;ratioP2;P2;SDS_P1;SDS_P2;PMS_P1;PMS_P2;Temp;Humidity;BMP_temperature;BMP_pressure;BME280_temperature;BME280_humidity;BME280_pressure;Samples;Min_cycle;Max_cycle;Signal;HPM_P1;HPM_P2
2022/04/01 00:01:40;;;;;;;25.73;5.80;;;;;;;12.23;67.12;95295.31;5113432;28;20370;-64
2022/04/01 00:04:06;;;;;;;23.45;5.47;;;;;;;12.24;66.78;95292.56;5113358;28;20024;-63
2022/04/01 00:06:31;;;;;;;29.13;6.97;;;;;;;12.24;66.80;95281.25;5113405;28;20020;-64
2022/04/01 00:08:57;;;;;;;23.02;6.30;;;;;;;12.31;66.43;95285.16;5113290;28;20019;-64
2022/04/01 00:11:23;;;;;;;36.22;6.97;;;;;;;12.36;66.14;95276.97;5113267;28;20020;-64
2022/04/01 00:13:48;;;;;;;31.02;5.82;;;;;;;12.36;66.12;95285.69;5113394;28;20507;-63
2022/04/01 00:16:16;;;;;;;23.13;5.78;;;;;;;12.37;65.99;95291.75;5113692;28;20016;-64
2022/04/01 00:18:41;;;;;;;33.78;6.90;;;;;;;12.38;65.92;95293.47;5117378;28;20087;-64
2022/04/01 00:21:07;;;;;;;31.50;6.50;;;;;;;12.42;65.85;95301.97;5117346;28;20419;-64
2022/04/01 00:23:32;;;;;;;23.70;5.40;;;;;;;12.48;65.26;95288.44;5117193;28;20031;-63
2022/04/01 00:25:58;;;;;;;32.95;7.78;;;;;;;12.46;65.20;95300.84;5117153;28;20481;-64
2022/04/01 00:28:24;;;;;;;27.45;5.63;;;;;;;12.49;65.25;95284.88;5117122;28;20051;-64
2022/04/01 00:30:49;;;;;;;29.45;6.22;;;;;;;12.50;64.99;95284.78;5117199;28;20019;-64
2022/04/01 00:33:16;;;;;;;24.13;6.10;;;;;;;12.58;64.80;95265.91;5117021;28;20365;-63
2022/04/01 00:35:42;;;;;;;26.77;5.10;;;;;;;12.59;64.53;95272.88;5116919;28;20024;-63
2022/04/01 00:38:08;;;;;;;29.92;5.55;;;;;;;12.60;64.51;95269.28;5117045;27;20030;-64
2022/04/01 00:40:35;;;;;;;24.63;5.97;;;;;;;12.57;64.83;95266.00;5116662;28;20019;-64
2022/04/01 00:43:01;;;;;;;22.38;6.57;;;;;;;12.55;64.52;95273.97;5116898;28;20063;-64
2022/04/01 00:45:27;;;;;;;24.00;5.78;;;;;;;12.64;64.29;95260.25;5116819;27;20058;-64
2022/04/01 00:47:54;;;;;;;30.33;6.47;;;;;;;12.64;64.34;95231.41;5116724;28;20041;-64
2022/04/01 00:50:20;;;;;;;31.63;5.93;;;;;;;12.69;63.67;95217.97;5116690;28;20024;-64
2022/04/01 00:52:45;;;;;;;31.83;6.13;;;;;;;12.67;63.94;95208.56;5116663;28;20030;-64
2022/04/01 00:55:11;;;;;;;26.63;7.40;;;;;;;12.66;63.82;95202.44;5116778;28;20362;-64
2022/04/01 00:57:37;;;;;;;29.63;6.95;;;;;;;12.62;63.79;95208.84;5116634;28;20042;-64
2022/04/01 01:00:05;;;;;;;27.15;6.07;;;;;;;12.64;63.94;95210.44;5116506;28;20485;-64
2022/04/01 01:02:31;;;;;;;27.85;5.55;;;;;;;12.63;63.75;95194.78;5116389;28;20026;-64
2022/04/01 01:04:56;;;;;;;31.63;6.40;;;;;;;12.61;63.79;95199.28;5116287;28;20098;-64
2022/04/01 01:07:22;;;;;;;29.60;6.13;;;;;;;12.61;63.96;95186.16;5116405;28;20016;-64
2022/04/01 01:09:49;;;;;;;25.45;5.68;;;;;;;12.58;63.63;95210.84;5116369;28;20031;-64
2022/04/01 01:12:15;;;;;;;27.55;5.88;;;;;;;12.55;63.81;95184.00;5116345;28;20020;-64
2022/04/01 01:14:41;;;;;;;29.63;5.97;;;;;;;12.60;63.57;95193.22;5116360;28;20023;-64
2022/04/01 01:17:11;;;;;;;28.98;6.53;;;;;;;12.64;63.43;95181.56;5116266;28;20024;-64
2022/04/01 01:19:38;;;;;;;26.60;6.30;;;;;;;12.61;63.49;95180.94;5116207;28;20028;-64
2022/04/01 01:22:04;;;;;;;26.98;6.00;;;;;;;12.65;63.34;95174.53;5116060;28;20152;-64
2022/04/01 01:24:31;;;;;;;31.90;6.70;;;;;;;12.64;63.19;95206.94;5115917;27;20490;-64
2022/04/01 01:26:57;;;;;;;29.23;7.05;;;;;;;12.60;63.38;95229.94;5115969;28;20035;-64
2022/04/01 01:29:29;;;;;;;40.65;6.68;;;;;;;12.60;63.50;95236.97;5114880;28;20015;-64
2022/04/01 01:31:56;;;;;;;26.77;6.70;;;;;;;12.60;63.54;95222.06;5115973;28;20022;-64
2022/04/01 01:34:23;;;;;;;30.67;5.85;;;;;;;12.59;63.53;95212.53;5115864;28;20231;-64
2022/04/01 01:36:50;;;;;;;30.80;7.38;;;;;;;12.55;64.17;95229.41;5115766;28;20054;-64
2022/04/01 01:39:17;;;;;;;26.17;6.72;;;;;;;12.59;63.78;95219.56;5115804;28;20368;-63
2022/04/01 01:41:44;;;;;;;21.95;5.68;;;;;;;12.60;63.61;95221.22;5115629;28;20123;-64
2022/04/01 01:44:11;;;;;;;27.75;6.47;;;;;;;12.52;63.66;95198.13;5115630;28;20107;-63
2022/04/01 01:46:37;;;;;;;23.90;6.78;;;;;;;12.55;63.63;95163.81;5115634;28;20036;-64
2022/04/01 01:49:03;;;;;;;25.83;5.95;;;;;;;12.53;63.75;95126.38;5115596;28;20073;-64
2022/04/01 01:56:56;;;;;;;32.47;6.53;;;;;;;12.53;63.59;95143.91;5115816;28;20381;-64
2022/04/01 01:59:22;;;;;;;37.35;7.72;;;;;;;12.49;63.71;95174.72;5115421;28;20024;-64
2022/04/01 02:01:47;;;;;;;32.97;6.72;;;;;;;12.50;63.90;95171.19;5115334;28;20031;-64
2022/04/01 02:04:13;;;;;;;32.75;6.43;;;;;;;12.46;64.09;95191.50;5115323;28;20027;-64
2022/04/01 02:06:39;;;;;;;30.67;6.55;;;;;;;12.46;63.94;95169.72;5115356;28;20027;-64
2022/04/01 02:09:05;;;;;;;32.13;7.32;;;;;;;12.49;63.50;95178.19;5115230;28;20089;-64
2022/04/01 02:11:30;;;;;;;29.60;7.32;;;;;;;12.45;63.55;95187.22;5115219;28;20020;-64
2022/04/01 02:13:57;;;;;;;31.95;7.88;;;;;;;12.42;63.82;95178.72;5115080;28;20020;-64
2022/04/01 02:16:22;;;;;;;35.40;7.80;;;;;;;12.37;64.22;95190.34;5114995;28;20024;-64
2022/04/01 02:18:49;;;;;;;30.13;7.28;;;;;;;12.34;64.04;95161.72;5115121;28;20020;-64
2022/04/01 02:21:16;;;;;;;38.75;6.85;;;;;;;12.36;63.97;95133.63;5115052;27;20016;-64
2022/04/01 02:23:44;;;;;;;41.65;7.63;;;;;;;12.36;63.69;95112.66;5114878;28;20034;-64
2022/04/01 02:26:10;;;;;;;32.60;7.40;;;;;;;12.33;63.82;95110.22;5114859;28;20374;-64
2022/04/01 02:28:37;;;;;;;31.55;7.80;;;;;;;12.41;63.33;95120.19;5114749;28;20020;-64
2022/04/01 02:31:06;;;;;;;36.42;7.88;;;;;;;12.40;63.04;95113.25;5114756;28;20031;-64
2022/04/01 02:33:33;;;;;;;52.95;9.38;;;;;;;12.46;62.65;95106.78;5114794;28;20034;-64
2022/04/01 02:35:59;;;;;;;41.90;7.95;;;;;;;12.49;62.40;95123.13;5114683;28;20592;-64
2022/04/01 02:38:26;;;;;;;44.85;8.15;;;;;;;12.51;62.31;95146.63;5114582;28;20094;-64
2022/04/01 02:40:53;;;;;;;42.25;8.60;;;;;;;12.54;61.53;95135.94;5114160;28;20394;-64
2022/04/01 02:43:19;;;;;;;51.92;8.25;;;;;;;12.66;60.92;95128.16;5114413;28;20049;-64
2022/04/01 02:45:45;;;;;;;36.97;7.60;;;;;;;12.67;61.00;95108.88;5114464;28;20024;-64
2022/04/01 02:48:11;;;;;;;36.92;8.05;;;;;;;12.62;61.23;95110.00;5114451;28;20500;-64
2022/04/01 02:50:38;;;;;;;40.35;7.95;;;;;;;12.65;60.85;95153.56;5114311;28;20016;-64
2022/04/01 02:53:03;;;;;;;38.28;7.78;;;;;;;12.67;60.72;95125.41;5114372;28;20035;-64
2022/04/01 02:55:29;;;;;;;51.10;9.10;;;;;;;12.70;60.67;95146.19;5114276;28;20028;-64
2022/04/01 02:57:54;;;;;;;43.28;8.18;;;;;;;12.66;60.53;95115.88;5114434;28;20031;-64
2022/04/01 03:00:23;;;;;;;39.25;7.70;;;;;;;12.62;60.56;95096.88;5114387;28;20031;-64
2022/04/01 03:02:49;;;;;;;44.22;8.68;;;;;;;12.62;60.73;95114.44;5114233;28;20098;-64
2022/04/01 03:05:14;;;;;;;35.88;7.57;;;;;;;12.61;60.54;95103.09;5114017;28;20122;-64
2022/04/01 03:07:40;;;;;;;37.60;7.85;;;;;;;12.66;60.39;95108.03;5114053;28;20021;-64
2022/04/01 03:10:06;;;;;;;41.08;7.93;;;;;;;12.58;60.58;95116.41;5114087;28;20020;-64
2022/04/01 03:12:31;;;;;;;35.60;8.00;;;;;;;12.49;60.78;95128.38;5113937;28;20023;-64
2022/04/01 03:14:57;;;;;;;43.40;7.53;;;;;;;12.46;60.56;95133.00;5113940;28;20023;-64
2022/04/01 03:17:22;;;;;;;42.47;7.75;;;;;;;12.49;60.71;95122.28;5113989;28;20023;-64
2022/04/01 03:19:48;;;;;;;38.78;7.78;;;;;;;12.47;60.83;95145.16;5113959;28;20051;-63
2022/04/01 03:22:14;;;;;;;31.75;8.10;;;;;;;12.42;60.89;95139.38;5113945;28;20552;-64
2022/04/01 03:24:40;;;;;;;41.38;8.13;;;;;;;12.42;61.08;95157.72;5113710;28;20027;-64
2022/04/01 03:27:05;;;;;;;43.72;7.93;;;;;;;12.43;60.98;95156.81;5113729;28;20042;-64
2022/04/01 03:29:32;;;;;;;41.05;8.63;;;;;;;12.39;61.34;95148.28;5113758;28;20434;-63
2022/04/01 03:31:58;;;;;;;46.00;7.72;;;;;;;12.36;61.39;95167.72;5113754;28;20016;-63
2022/04/01 03:34:23;;;;;;;43.97;8.60;;;;;;;12.37;61.34;95179.00;5113867;28;20031;-64
2022/04/01 03:36:49;;;;;;;41.40;7.70;;;;;;;12.37;61.46;95160.66;5113647;28;20373;-64
2022/04/01 03:39:17;;;;;;;40.80;8.30;;;;;;;12.29;61.85;95168.22;5113626;28;20100;-64
2022/04/01 03:41:42;;;;;;;49.92;8.15;;;;;;;12.33;61.83;95172.31;5113387;28;20048;-64
2022/04/01 03:44:09;;;;;;;42.50;8.82;;;;;;;12.29;61.89;95165.59;5113571;28;20023;-64
2022/04/01 03:47:01;;;;;;;43.67;7.22;;;;;;;12.36;61.63;95164.22;5113578;28;20019;-64
2022/04/01 03:49:31;;;;;;;55.92;9.75;;;;;;;12.32;61.90;95157.53;5113614;28;20494;-63
2022/04/01 03:51:58;;;;;;;32.20;8.45;;;;;;;12.37;61.73;95151.03;5117216;28;20465;-64
2022/04/01 03:54:25;;;;;;;45.15;9.10;;;;;;;12.33;62.01;95139.06;5120281;27;20090;-64
2022/04/01 03:57:00;;;;;;;37.83;7.60;;;;;;;12.42;61.78;95147.25;5120360;28;20035;-64
2022/04/01 03:59:40;;;;;;;55.15;8.65;;;;;;;12.39;61.67;95129.94;5120479;27;20377;-64
2022/04/01 04:02:09;;;;;;;60.28;8.27;;;;;;;12.47;61.54;95134.66;5120346;27;20059;-64
2022/04/01 04:04:36;;;;;;;47.00;8.82;;;;;;;12.45;61.82;95142.63;5120210;27;20557;-64
2022/04/01 04:07:06;;;;;;;56.70;9.68;;;;;;;12.41;61.76;95148.19;5120223;28;20465;-64
2022/04/01 04:09:41;;;;;;;47.85;8.95;;;;;;;12.44;61.76;95145.38;5120235;27;20032;-64
2022/04/01 04:12:13;;;;;;;52.83;8.95;;;;;;;12.41;61.93;95143.81;5120337;27;20358;-64
2022/04/01 04:14:42;;;;;;;46.20;9.00;;;;;;;12.43;61.71;95117.47;5120165;27;20027;-64
2022/04/01 04:17:14;;;;;;;49.15;10.25;;;;;;;12.41;62.08;95128.06;5120073;27;20022;-63
2022/04/01 04:20:01;;;;;;;39.65;9.07;;;;;;;12.41;62.19;95119.34;5120058;27;20496;-64
2022/04/01 04:22:51;;;;;;;43.45;9.35;;;;;;;12.41;62.26;95133.31;5120180;27;20061;-64
2022/04/01 04:25:22;;;;;;;42.22;7.50;;;;;;;12.45;62.33;95126.91;5119846;28;20040;-64
2022/04/01 04:27:58;;;;;;;;;;;;;;;12.49;62.27;95123.13;5120480;27;20079;-64
2022/04/01 04:30:45;;;;;;;50.47;9.18;;;;;;;12.44;62.54;95130.50;5119996;27;20412;-63
2022/04/01 04:33:12;;;;;;;40.78;8.75;;;;;;;12.51;62.33;95120.41;5119992;27;20034;-63
2022/04/01 04:35:39;;;;;;;45.50;10.13;;;;;;;12.50;62.43;95143.16;5119982;27;20027;-64
2022/04/01 04:38:07;;;;;;;53.53;9.30;;;;;;;12.54;62.54;95138.56;5119867;27;20024;-64
2022/04/01 04:40:37;;;;;;;59.58;9.25;;;;;;;12.61;62.12;95131.94;5119780;27;20123;-64
2022/04/01 04:43:03;;;;;;;43.38;8.77;;;;;;;12.62;62.30;95125.75;5119951;27;20425;-63
2022/04/01 04:45:30;;;;;;;42.00;9.57;;;;;;;12.69;62.37;95133.19;5119893;27;20377;-64
2022/04/01 04:47:57;;;;;;;49.22;9.82;;;;;;;12.71;62.39;95136.56;5119904;27;20481;-64
2022/04/01 04:50:23;;;;;;;41.63;9.48;;;;;;;12.74;62.55;95120.59;5119719;27;20011;-64
2022/04/01 04:52:51;;;;;;;47.95;9.70;;;;;;;12.72;62.54;95109.38;5119702;27;20132;-64
2022/04/01 04:55:18;;;;;;;40.70;9.40;;;;;;;12.80;62.38;95128.06;5119898;27;20065;-64
2022/04/01 04:57:45;;;;;;;54.97;9.40;;;;;;;12.91;61.94;95118.59;5119780;27;20051;-64
2022/04/01 05:00:12;;;;;;;39.97;9.73;;;;;;;12.95;61.92;95136.66;5119761;27;20536;-64
2022/04/01 05:02:54;;;;;;;47.03;9.27;;;;;;;12.97;61.82;95131.25;5118924;27;20030;-64
2022/04/01 05:05:46;;;;;;;41.55;9.20;;;;;;;13.03;61.85;95146.59;5116486;28;20527;-64
2022/04/01 05:08:28;;;;;;;55.10;9.02;;;;;;;13.16;61.03;95162.34;5116386;28;20393;-64
2022/04/01 05:11:02;;;;;;;37.70;9.50;;;;;;;13.19;61.22;95162.13;5116418;28;20102;-64
2022/04/01 05:14:01;;;;;;;36.88;8.40;;;;;;;13.30;60.55;95166.59;5116409;28;20027;-63
2022/04/01 05:16:26;;;;;;;45.97;8.80;;;;;;;13.31;60.82;95165.66;5116284;28;20023;-64
2022/04/01 05:19:07;;;;;;;54.85;9.75;;;;;;;13.43;60.42;95166.56;5116154;28;20024;-64
2022/04/01 05:22:07;;;;;;;54.80;9.82;;;;;;;13.58;60.22;95162.00;5116185;27;20035;-63
2022/04/01 05:24:39;;;;;;;57.72;9.70;;;;;;;13.71;59.58;95151.47;5115573;28;20558;-64
2022/04/01 05:27:20;;;;;;;50.30;10.27;;;;;;;13.85;59.29;95162.78;5116004;28;20477;-64
2022/04/01 05:29:52;;;;;;;46.10;9.30;;;;;;;14.08;58.65;95160.22;5116068;28;20106;-64
2022/04/01 05:32:20;;;;;;;38.90;9.98;;;;;;;14.23;57.72;95145.94;5115944;28;20434;-63
2022/04/01 05:34:49;;;;;;;40.55;9.05;;;;;;;14.37;57.22;95152.78;5115952;28;20119;-63
2022/04/01 05:37:17;;;;;;;45.70;9.73;;;;;;;14.53;56.97;95159.50;5115871;28;20115;-64
2022/04/01 05:39:48;;;;;;;36.10;9.07;;;;;;;14.60;57.04;95157.25;5115731;28;20019;-63
2022/04/01 05:42:18;;;;;;;34.15;9.20;;;;;;;14.81;56.51;95161.88;5115566;28;20048;-64
2022/04/01 05:44:45;;;;;;;35.28;9.45;;;;;;;15.07;56.18;95153.72;5115521;28;20077;-64
2022/04/01 05:47:12;;;;;;;47.33;8.95;;;;;;;15.29;54.67;95148.44;5115669;28;20044;-64
2022/04/01 05:49:41;;;;;;;40.65;8.98;;;;;;;15.29;54.61;95161.63;5115616;27;20024;-64
2022/04/01 05:52:10;;;;;;;44.00;10.02;;;;;;;15.40;53.84;95160.78;5115571;28;20081;-64
2022/04/01 05:54:37;;;;;;;34.70;9.48;;;;;;;15.58;54.09;95157.63;5115527;28;20031;-64
2022/04/01 05:57:04;;;;;;;50.83;9.35;;;;;;;15.62;53.46;95152.94;5115443;28;20485;-64
2022/04/01 05:59:32;;;;;;;29.38;8.40;;;;;;;15.81;52.43;95154.09;5115405;28;20028;-64
2022/04/01 06:02:30;;;;;;;37.28;9.02;;;;;;;16.05;51.66;95143.38;5115389;28;20050;-64
2022/04/01 06:05:13;;;;;;;39.47;8.48;;;;;;;16.20;51.73;95135.16;5115239;28;20046;-64
2022/04/01 06:07:54;;;;;;;43.97;10.23;;;;;;;16.39;51.50;95145.84;5115239;28;20034;-64
2022/04/01 06:10:57;;;;;;;32.67;8.40;;;;;;;16.62;50.47;95148.31;5115264;28;20076;-63
2022/04/01 06:13:33;;;;;;;29.60;8.27;;;;;;;16.52;50.32;95148.28;5115117;28;20027;-64
2022/04/01 06:16:26;;;;;;;30.00;7.63;;;;;;;16.64;50.10;95148.19;5114679;28;20031;-64
2022/04/01 06:19:07;;;;;;;28.88;8.18;;;;;;;16.87;49.59;95151.53;5115097;28;20023;-64
2022/04/01 06:21:38;;;;;;;35.80;8.88;;;;;;;17.00;49.39;95134.63;5115105;28;20492;-63
2022/04/01 06:24:10;;;;;;;30.80;9.00;;;;;;;17.20;48.39;95143.50;5114894;27;20031;-64
2022/04/01 06:26:46;;;;;;;32.13;8.63;;;;;;;17.29;48.77;95131.28;5114961;28;20028;-64
2022/04/01 06:29:42;;;;;;;32.83;8.80;;;;;;;17.27;48.41;95133.22;5114948;27;20023;-64
2022/04/01 06:32:39;;;;;;;38.30;8.00;;;;;;;17.68;47.78;95117.31;5114911;28;20406;-64
2022/04/01 06:35:18;;;;;;;32.58;7.72;;;;;;;17.76;47.71;95128.03;5114669;28;20091;-64
2022/04/01 06:38:13;;;;;;;41.15;8.32;;;;;;;17.75;47.27;95122.88;5114840;28;20058;-64
2022/04/01 06:40:47;;;;;;;38.63;9.52;;;;;;;18.06;47.48;95130.69;5112943;28;20459;-64
2022/04/01 06:43:13;;;;;;;40.13;9.48;;;;;;;18.24;46.06;95128.19;5114516;28;20058;-64
2022/04/01 06:45:45;;;;;;;42.45;9.35;;;;;;;18.34;46.82;95130.88;5114478;28;20024;-64
2022/04/01 06:48:11;;;;;;;43.70;9.57;;;;;;;18.48;46.29;95129.56;5114448;28;20020;-64
2022/04/01 06:50:37;;;;;;;32.08;9.25;;;;;;;18.61;46.08;95144.31;5114486;28;20047;-64
2022/04/01 06:53:03;;;;;;;37.35;8.65;;;;;;;18.35;46.11;95124.59;5114414;28;20046;-64
2022/04/01 06:55:29;;;;;;;35.05;9.20;;;;;;;18.73;45.94;95137.06;5114283;28;20493;-64
2022/04/01 06:57:55;;;;;;;46.38;9.98;;;;;;;18.74;44.90;95128.97;5114260;28;20018;-64
2022/04/01 07:00:20;;;;;;;31.48;7.97;;;;;;;18.56;45.45;95128.88;5113027;28;20024;-64
2022/04/01 07:02:47;;;;;;;44.80;8.82;;;;;;;18.45;46.00;95135.16;5114246;28;20023;-64
2022/04/01 07:05:13;;;;;;;43.28;9.18;;;;;;;18.76;45.09;95134.13;5114179;28;20028;-63
2022/04/01 07:07:42;;;;;;;28.95;8.10;;;;;;;18.69;45.55;95131.19;5114033;28;20079;-64
2022/04/01 07:10:10;;;;;;;38.85;8.30;;;;;;;19.03;44.57;95124.56;5114102;28;20038;-64
2022/04/01 07:12:37;;;;;;;38.65;9.98;;;;;;;19.37;44.48;95128.47;5114056;28;20035;-64
2022/04/01 07:15:03;;;;;;;39.03;8.43;;;;;;;19.50;44.20;95142.19;5114061;27;20057;-64
2022/04/01 07:17:29;;;;;;;33.38;7.78;;;;;;;19.62;42.65;95142.00;5114072;28;20110;-64
2022/04/01 07:19:55;;;;;;;42.53;7.97;;;;;;;19.37;43.77;95131.13;5113876;28;20496;-64
2022/04/01 07:22:21;;;;;;;39.42;9.20;;;;;;;19.48;43.53;95132.72;5113809;28;20027;-65
2022/04/01 07:24:47;;;;;;;28.30;7.60;;;;;;;19.73;43.01;95115.28;5113832;28;20027;-64
2022/04/01 07:27:14;;;;;;;40.50;8.35;;;;;;;19.87;42.36;95132.47;5113013;28;20377;-64
2022/04/01 07:29:40;;;;;;;42.53;9.57;;;;;;;19.78;42.40;95133.41;5113765;28;20030;-64
2022/04/01 07:34:52;;;;;;;40.13;8.23;;;;;;;19.82;42.37;95132.09;5113793;28;20112;-64
2022/04/01 07:37:23;;;;;;;40.17;8.55;;;;;;;19.59;42.52;95113.97;5113814;28;20020;-64
2022/04/01 07:39:54;;;;;;;41.63;8.93;;;;;;;19.49;43.17;95121.13;5113757;28;20026;-64
2022/04/01 07:42:21;;;;;;;38.38;8.50;;;;;;;19.71;42.28;95111.94;5113574;28;20039;-65
2022/04/01 07:44:48;;;;;;;38.00;8.25;;;;;;;19.92;42.17;95119.59;5113501;28;20077;-65
2022/04/01 07:47:18;;;;;;;40.78;7.90;;;;;;;19.85;43.25;95107.94;5112232;28;20034;-65
2022/04/01 07:49:48;;;;;;;40.85;8.88;;;;;;;19.91;42.53;95102.03;5113626;28;20024;-64
2022/04/01 07:52:16;;;;;;;47.03;9.17;;;;;;;19.85;42.86;95126.50;5113611;28;20035;-65
2022/04/01 07:54:43;;;;;;;33.13;7.50;;;;;;;19.78;42.77;95107.69;5113549;28;20335;-65
2022/04/01 07:57:12;;;;;;;32.60;7.78;;;;;;;19.85;42.35;95107.94;5112139;28;20374;-64
2022/04/01 07:59:38;;;;;;;35.03;8.77;;;;;;;20.01;43.36;95096.66;5113475;28;20088;-65
2022/04/01 08:02:06;;;;;;;36.20;8.40;;;;;;;20.05;42.67;95083.94;5113370;28;20047;-65
2022/04/01 08:04:32;;;;;;;44.42;8.43;;;;;;;20.23;41.16;95102.50;5113318;28;20106;-64
2022/04/01 08:06:58;;;;;;;36.33;9.38;;;;;;;20.33;41.81;95097.94;5113504;28;20118;-65
2022/04/01 08:09:24;;;;;;;50.67;9.30;;;;;;;20.57;40.81;95084.97;5113396;28;20072;-64
2022/04/01 08:11:51;;;;;;;40.10;8.80;;;;;;;20.41;40.37;95096.31;5113510;28;20073;-64
2022/04/01 08:14:19;;;;;;;43.88;8.20;;;;;;;20.62;40.53;95087.97;5113402;28;20024;-64
2022/04/01 08:16:46;;;;;;;33.20;7.85;;;;;;;20.50;40.30;95091.88;5113316;28;20026;-64
2022/04/01 08:19:12;;;;;;;38.58;8.82;;;;;;;20.40;41.31;95092.81;5113312;28;20015;-64
2022/04/01 08:21:39;;;;;;;34.60;7.68;;;;;;;20.51;40.00;95114.78;5113173;28;20473;-64
2022/04/01 08:24:05;;;;;;;40.95;9.02;;;;;;;20.41;40.30;95107.75;5113124;28;20055;-64
2022/04/01 08:26:30;;;;;;;41.90;8.00;;;;;;;20.53;40.47;95095.06;5113149;28;20019;-64
2022/04/01 08:28:56;;;;;;;42.25;8.13;;;;;;;20.73;40.02;95101.97;5113181;28;20078;-64
2022/04/01 08:31:22;;;;;;;42.50;8.18;;;;;;;20.41;41.08;95083.03;5113124;28;20059;-64
2022/04/01 08:33:50;;;;;;;41.30;8.30;;;;;;;20.60;40.89;95089.97;5113156;28;20051;-63
2022/04/01 08:36:17;;;;;;;46.78;8.23;;;;;;;20.71;41.15;95083.56;5113161;28;20020;-64
2022/04/01 08:38:43;;;;;;;35.33;8.27;;;;;;;20.99;38.97;95082.56;5115864;28;20015;-64
2022/04/01 08:41:10;;;;;;;52.50;9.18;;;;;;;20.95;40.74;95077.56;5116704;28;20047;-64
2022/04/01 08:43:39;;;;;;;34.03;8.30;;;;;;;20.55;39.90;95073.66;5116869;28;20055;-64
2022/04/01 08:46:07;;;;;;;32.65;8.50;;;;;;;20.49;40.31;95084.91;5116838;28;20063;-65
2022/04/01 08:48:34;;;;;;;51.08;9.35;;;;;;;20.43;40.12;95087.19;5116837;28;20027;-64
2022/04/01 08:51:00;;;;;;;44.10;8.77;;;;;;;20.23;39.94;95081.25;5116754;28;20028;-64
2022/04/01 08:53:26;;;;;;;43.35;9.05;;;;;;;20.19;41.50;95062.13;5116829;28;20376;-64
2022/04/01 08:55:55;;;;;;;39.50;8.75;;;;;;;20.43;40.87;95070.41;5116658;27;20024;-64
2022/04/01 08:58:21;;;;;;;30.52;8.48;;;;;;;20.57;41.84;95056.59;5116515;28;20028;-64
2022/04/01 09:00:48;;;;;;;39.92;8.73;;;;;;;20.73;40.07;95046.19;5116498;28;20016;-64
2022/04/01 09:03:15;;;;;;;44.60;9.60;;;;;;;20.75;40.54;95042.41;5116469;28;20032;-64
2022/04/01 09:05:52;;;;;;;39.25;8.60;;;;;;;20.73;39.67;95043.53;5116487;28;20023;-64
2022/04/01 09:08:33;;;;;;;56.88;9.82;;;;;;;20.54;40.52;95021.53;5116492;28;20035;-64
2022/04/01 09:11:08;;;;;;;42.60;9.60;;;;;;;20.66;39.75;95030.06;5116553;28;20041;-64
2022/04/01 09:13:42;;;;;;;46.58;8.38;;;;;;;20.67;39.43;95029.91;5116356;28;20024;-64
2022/04/01 09:16:09;;;;;;;49.75;9.48;;;;;;;20.59;40.89;95043.16;5116347;27;20043;-65
2022/04/01 09:18:36;;;;;;;37.30;7.85;;;;;;;20.64;40.33;95038.19;5116258;28;20031;-64
2022/04/01 09:21:02;;;;;;;48.50;9.88;;;;;;;20.56;40.16;95031.00;5116186;28;20469;-64
2022/04/01 09:23:27;;;;;;;44.00;8.75;;;;;;;20.64;39.63;95014.28;5116083;28;20028;-64
2022/04/01 09:25:54;;;;;;;44.95;8.60;;;;;;;20.76;40.86;95004.22;5115917;28;20020;-64
2022/04/01 09:28:30;;;;;;;35.72;8.70;;;;;;;20.96;39.74;95004.00;5116080;27;20055;-64
2022/04/01 09:31:12;;;;;;;34.60;7.68;;;;;;;20.96;39.07;94999.50;5115990;28;20026;-64
2022/04/01 09:33:43;;;;;;;38.00;7.60;;;;;;;20.95;38.57;95010.31;5116006;28;20024;-64
2022/04/01 09:36:23;;;;;;;41.20;8.27;;;;;;;20.93;39.54;94999.84;5115917;28;20051;-64
2022/04/01 09:39:03;;;;;;;41.90;8.38;;;;;;;20.95;39.55;95027.06;5115902;28;20395;-64
2022/04/01 09:41:37;;;;;;;;;;;;;;;20.91;39.90;95025.72;5116230;28;20401;-64
2022/04/01 09:44:06;;;;;;;37.33;7.07;;;;;;;20.70;39.14;94991.56;5115848;28;20361;-64
2022/04/01 09:46:33;;;;;;;45.25;8.45;;;;;;;20.74;39.87;94989.44;5115759;28;20024;-63
2022/04/01 09:49:00;;;;;;;52.03;9.80;;;;;;;20.77;39.58;94997.91;5114865;28;20027;-64
2022/04/01 09:51:33;;;;;;;50.22;8.85;;;;;;;20.79;39.30;95001.25;5115616;28;20023;-64
2022/04/01 09:54:02;;;;;;;35.22;7.70;;;;;;;20.84;38.81;94987.47;5115700;28;20034;-64
2022/04/01 09:56:40;;;;;;;30.60;8.57;;;;;;;20.87;38.81;94989.81;5115759;28;20435;-64
2022/04/01 09:59:07;;;;;;;45.00;8.35;;;;;;;20.95;39.31;94983.75;5115554;28;20032;-65
2022/04/01 10:01:35;;;;;;;52.45;9.35;;;;;;;20.98;39.58;94969.28;5115465;27;20018;-64
2022/04/01 10:04:01;;;;;;;44.40;8.77;;;;;;;21.12;38.99;94960.69;5115335;28;20027;-64
2022/04/01 10:06:28;;;;;;;52.60;10.30;;;;;;;21.10;38.67;94967.97;5115371;28;20488;-64
2022/04/01 10:08:56;;;;;;;38.30;7.63;;;;;;;21.16;37.86;94969.19;5115366;28;20019;-64
2022/04/01 10:11:23;;;;;;;47.25;9.52;;;;;;;21.19;38.65;94951.06;5115285;28;20027;-64
2022/04/01 10:13:50;;;;;;;43.58;9.25;;;;;;;21.34;38.54;94955.72;5115124;28;20385;-64
2022/04/01 10:16:18;;;;;;;52.85;9.15;;;;;;;21.27;38.16;94968.84;5115084;28;20026;-64
2022/04/01 10:18:47;;;;;;;39.53;9.10;;;;;;;21.32;38.69;94971.88;5115132;28;20020;-64
2022/04/01 10:21:17;;;;;;;55.50;9.15;;;;;;;21.40;37.87;94959.59;5115110;28;20060;-64
2022/04/01 10:24:06;;;;;;;49.58;9.20;;;;;;;21.30;37.64;94947.25;5114988;28;20042;-64
2022/04/01 10:26:33;;;;;;;51.33;9.93;;;;;;;21.28;37.80;94943.13;5114921;28;20028;-64
2022/04/01 10:29:02;;;;;;;41.05;9.27;;;;;;;21.23;38.10;94943.59;5114923;28;20106;-64
2022/04/01 10:31:27;;;;;;;45.42;9.98;;;;;;;21.36;39.00;94950.25;5114836;28;20123;-64
2022/04/01 10:34:13;;;;;;;42.60;8.45;;;;;;;21.32;38.64;94955.91;5114844;28;20054;-64
2022/04/01 10:36:42;;;;;;;40.67;8.07;;;;;;;21.46;38.15;94940.28;5114619;28;20098;-65
2022/04/01 10:39:10;;;;;;;37.47;9.02;;;;;;;21.33;38.25;94940.78;5114686;28;20111;-64
2022/04/01 10:41:36;;;;;;;41.25;7.97;;;;;;;21.19;39.86;94934.31;5114456;27;20082;-64
2022/04/01 10:44:03;;;;;;;41.58;8.70;;;;;;;21.07;38.53;94949.72;5114446;28;20556;-64
2022/04/01 10:46:28;;;;;;;44.92;9.00;;;;;;;20.88;38.93;94937.50;5114504;28;20427;-64
2022/04/01 10:52:11;;;;;;;48.40;9.85;;;;;;;21.06;39.40;94940.06;5114389;28;20054;-64
2022/04/01 10:54:42;;;;;;;43.38;9.60;;;;;;;21.19;37.73;94936.97;5114509;28;20024;-64
2022/04/01 10:57:10;;;;;;;53.10;8.50;;;;;;;21.13;38.05;94940.25;5114428;28;20019;-64
2022/04/01 10:59:45;;;;;;;39.15;7.20;;;;;;;21.05;38.43;94933.09;5114302;28;20382;-64
2022/04/01 11:02:18;;;;;;;39.83;9.35;;;;;;;20.91;39.66;94950.50;5114156;28;20039;-64
2022/04/01 11:04:45;;;;;;;43.28;8.88;;;;;;;20.86;39.48;94950.13;5114067;28;20156;-64
2022/04/01 11:07:14;;;;;;;44.45;7.82;;;;;;;20.70;39.19;94963.19;5114066;28;20015;-64
2022/04/01 11:09:46;;;;;;;50.17;9.88;;;;;;;20.66;40.15;94945.06;5114045;28;20023;-64
2022/04/01 11:12:15;;;;;;;43.65;9.48;;;;;;;20.71;39.71;94942.78;5114121;28;20027;-64
2022/04/01 11:15:07;;;;;;;40.45;10.02;;;;;;;20.70;39.77;94944.59;5114139;28;20075;-64
2022/04/01 11:17:41;;;;;;;44.90;9.23;;;;;;;20.57;40.27;94961.00;5113944;28;20043;-64
2022/04/01 11:20:09;;;;;;;54.53;9.52;;;;;;;20.44;40.24;94937.50;5114080;28;20035;-64
2022/04/01 11:22:53;;;;;;;34.45;8.27;;;;;;;20.36;40.43;94940.16;5113880;28;20377;-64
2022/04/01 11:25:22;;;;;;;41.28;7.72;;;;;;;20.54;39.61;94926.78;5113893;28;20035;-64
2022/04/01 11:28:14;;;;;;;45.80;8.18;;;;;;;20.45;40.85;94936.53;5113913;28;20076;-64
2022/04/01 11:30:54;;;;;;;38.63;8.32;;;;;;;20.61;40.34;94926.13;5113884;28;20080;-64
2022/04/01 11:33:21;;;;;;;50.13;9.10;;;;;;;20.65;40.37;94925.66;5113683;28;20114;-64
2022/04/01 11:35:53;;;;;;;40.42;8.20;;;;;;;20.56;40.25;94924.78;5113799;28;20107;-64
2022/04/01 11:38:24;;;;;;;51.30;8.88;;;;;;;20.64;39.65;94920.50;5113787;28;20032;-64
2022/04/01 11:40:56;;;;;;;34.45;8.18;;;;;;;20.61;41.24;94929.63;5113331;28;20035;-64
2022/04/01 11:43:26;;;;;;;46.70;8.80;;;;;;;20.67;41.33;94913.03;5113592;28;20034;-64
2022/04/01 11:46:07;;;;;;;38.30;8.63;;;;;;;20.75;40.22;94936.16;5114041;28;20020;-64
2022/04/01 11:48:35;;;;;;;42.13;9.43;;;;;;;20.70;39.87;94933.13;5113811;28;20028;-63
2022/04/01 11:51:17;;;;;;;46.13;9.23;;;;;;;20.64;39.98;94909.88;5113502;28;20043;-64